Time;durP1;ratioP1;P1;durP2;ratioP2;P2;SDS_P1;SDS_P2;PMS_P1;PMS_P2;Temp;Humidity;BMP_temperature;BMP_pressure;BME280_temperature;BME280_humidity;BME280_pressure;Samples;Min_cycle;Max_cycle;Signal;HPM_P1;HPM_P2
2023/05/13 00:01:38;;;;;;;2.90;1.30;;;15.40;56.70;;;;;;5010326;28;20199;-52
2023/05/13 00:04:09;;;;;;;2.03;1.20;;;15.40;56.80;;;;;;5014691;28;20232;-51
2023/05/13 00:06:39;;;;;;;2.25;1.38;;;15.30;56.70;;;;;;5014886;28;20205;-49
2023/05/13 00:09:10;;;;;;;2.10;1.17;;;15.40;56.70;;;;;;5014974;28;20216;-48
2023/05/13 00:11:43;;;;;;;1.58;0.90;;;15.40;56.80;;;;;;5014789;28;20192;-54
2023/05/13 00:14:13;;;;;;;2.08;1.30;;;15.40;56.80;;;;;;5012486;28;21543;-53
2023/05/13 00:16:44;;;;;;;2.00;1.20;;;15.50;56.90;;;;;;5013724;28;20193;-50
2023/05/13 00:19:15;;;;;;;3.35;1.30;;;15.50;57.00;;;;;;5014530;28;20223;-51
2023/05/13 00:21:45;;;;;;;2.78;1.30;;;15.50;57.00;;;;;;5014106;28;20685;-51
2023/05/13 00:24:16;;;;;;;2.65;1.38;;;15.50;57.00;;;;;;5013815;28;20657;-52
2023/05/13 00:26:48;;;;;;;2.05;1.23;;;15.60;57.10;;;;;;5014452;28;20653;-51
2023/05/13 00:29:19;;;;;;;2.00;1.10;;;15.60;57.10;;;;;;5014965;28;20212;-51
2023/05/13 00:31:50;;;;;;;1.65;1.10;;;15.60;57.10;;;;;;5014378;28;20204;-52
2023/05/13 00:34:20;;;;;;;4.25;1.52;;;15.60;57.10;;;;;;5014803;28;20220;-50
2023/05/13 00:36:51;;;;;;;3.53;1.40;;;15.60;57.10;;;;;;5014184;28;20200;-47
2023/05/13 00:39:22;;;;;;;1.85;1.10;;;15.70;57.30;;;;;;5014047;28;20216;-50
2023/05/13 00:49:57;;;;;;;2.78;1.38;;;15.80;57.50;;;;;;5463138;22;20224;-58
2023/05/13 00:52:30;;;;;;;3.47;2.47;;;15.80;57.60;;;;;;4996488;28;20367;-53
2023/05/13 00:55:01;;;;;;;3.05;1.85;;;15.80;57.90;;;;;;5014059;28;20557;-51
2023/05/13 00:57:32;;;;;;;3.22;1.90;;;15.90;58.00;;;;;;5014766;28;20192;-52
2023/05/13 01:00:04;;;;;;;3.15;1.52;;;15.90;58.00;;;;;;5014065;28;20240;-50
2023/05/13 01:02:43;;;;;;;4.30;1.65;;;15.90;57.90;;;;;;5014475;28;20285;-55
2023/05/13 01:05:22;;;;;;;1.80;1.48;;;16.00;58.00;;;;;;5014517;28;20200;-50
2023/05/13 01:08:00;;;;;;;3.88;1.42;;;16.00;57.90;;;;;;5014170;28;20200;-56
2023/05/13 01:10:39;;;;;;;2.88;1.73;;;16.00;57.80;;;;;;5014107;28;20220;-52
2023/05/13 01:13:12;;;;;;;3.67;1.92;;;16.10;57.90;;;;;;5014084;28;20235;-53
2023/05/13 01:15:47;;;;;;;2.78;1.80;;;16.10;57.90;;;;;;5014340;28;20287;-54
2023/05/13 01:18:21;;;;;;;3.70;1.73;;;16.10;57.90;;;;;;5014272;28;20199;-55
2023/05/13 01:20:54;;;;;;;3.22;1.90;;;16.10;58.00;;;;;;5014541;28;20255;-53
2023/05/13 01:23:27;;;;;;;3.80;1.75;;;16.20;58.00;;;;;;5014058;28;20645;-54
2023/05/13 01:25:57;;;;;;;2.80;1.88;;;16.20;58.00;;;;;;5014223;28;20672;-51
2023/05/13 01:28:28;;;;;;;3.33;2.05;;;16.20;57.90;;;;;;5013229;28;20200;-53
2023/05/13 01:30:59;;;;;;;2.95;2.00;;;16.20;58.00;;;;;;5013981;28;20201;-51
2023/05/13 01:33:31;;;;;;;3.67;2.00;;;16.30;58.00;;;;;;5013473;28;20290;-55
2023/05/13 01:36:02;;;;;;;3.67;1.95;;;16.30;58.00;;;;;;5013444;28;20227;-55
2023/05/13 01:38:36;;;;;;;3.95;1.90;;;16.30;58.10;;;;;;5013446;28;20232;-54
2023/05/13 01:41:06;;;;;;;2.55;1.88;;;16.30;58.10;;;;;;5013887;28;20580;-54
2023/05/13 01:43:37;;;;;;;2.85;2.20;;;16.40;58.10;;;;;;5014281;28;20207;-52
2023/05/13 01:46:14;;;;;;;3.58;2.30;;;16.40;58.10;;;;;;5013907;28;20597;-57
2023/05/13 01:48:45;;;;;;;4.20;2.03;;;16.40;58.20;;;;;;5013091;28;20287;-57
2023/05/13 01:51:15;;;;;;;3.78;2.20;;;16.40;58.10;;;;;;5013440;28;20200;-52
2023/05/13 01:53:48;;;;;;;2.83;1.88;;;16.50;58.10;;;;;;5013931;28;20681;-58
2023/05/13 01:56:18;;;;;;;4.18;2.13;;;16.50;58.10;;;;;;5013109;28;20712;-54
2023/05/13 01:58:49;;;;;;;2.35;1.92;;;16.50;58.10;;;;;;5012566;28;20225;-54
2023/05/13 02:01:20;;;;;;;2.30;1.77;;;16.50;58.10;;;;;;5013045;28;20205;-56
2023/05/13 02:03:50;;;;;;;2.90;1.70;;;16.60;58.10;;;;;;5013315;28;20200;-56
2023/05/13 02:06:21;;;;;;;2.35;1.88;;;16.60;58.00;;;;;;5012895;28;20200;-54
2023/05/13 02:08:53;;;;;;;5.40;2.13;;;16.60;58.00;;;;;;5013302;28;20623;-56
2023/05/13 02:11:24;;;;;;;3.42;2.38;;;16.60;58.10;;;;;;5013150;28;20611;-58
2023/05/13 02:13:55;;;;;;;4.10;2.42;;;16.70;58.10;;;;;;5013108;28;20201;-57
2023/05/13 02:16:25;;;;;;;2.63;1.73;;;16.70;58.20;;;;;;5013088;28;20231;-59
2023/05/13 02:18:56;;;;;;;2.42;2.03;;;16.70;58.20;;;;;;5012897;28;20219;-49
2023/05/13 02:21:26;;;;;;;3.88;2.35;;;16.70;58.20;;;;;;5013078;28;20562;-57
2023/05/13 02:23:59;;;;;;;3.92;2.00;;;16.70;58.20;;;;;;5012535;28;20617;-54
2023/05/13 02:26:30;;;;;;;3.80;2.15;;;16.80;58.30;;;;;;5011693;28;20208;-56
2023/05/13 02:29:00;;;;;;;5.05;2.45;;;16.80;58.30;;;;;;5012892;28;20224;-54
2023/05/13 02:31:31;;;;;;;4.22;2.20;;;16.80;58.40;;;;;;5012863;28;20572;-56
2023/05/13 02:34:02;;;;;;;4.57;2.28;;;16.80;58.40;;;;;;5012704;28;20223;-57
2023/05/13 02:36:32;;;;;;;3.25;2.00;;;16.90;58.50;;;;;;5012572;28;20319;-55
2023/05/13 02:39:05;;;;;;;3.60;2.28;;;16.90;58.50;;;;;;5012641;28;20217;-57
2023/05/13 02:41:38;;;;;;;3.70;2.00;;;16.90;58.50;;;;;;5012914;28;20233;-57
2023/05/13 02:44:09;;;;;;;2.35;2.10;;;16.90;58.50;;;;;;5012234;28;20255;-55
2023/05/13 02:46:40;;;;;;;3.42;2.20;;;16.90;58.50;;;;;;5011859;28;20204;-61
2023/05/13 02:49:10;;;;;;;2.08;1.70;;;17.00;58.60;;;;;;5011866;28;20719;-57
2023/05/13 02:51:41;;;;;;;2.13;1.80;;;17.00;58.70;;;;;;5011936;28;20251;-60
2023/05/13 02:54:13;;;;;;;3.72;1.80;;;17.00;58.70;;;;;;5011848;28;20199;-57
2023/05/13 02:56:44;;;;;;;2.55;2.03;;;17.00;58.60;;;;;;5011931;28;20227;-57
2023/05/13 02:59:15;;;;;;;2.42;1.83;;;17.10;58.70;;;;;;5012327;28;20221;-56
2023/05/13 03:01:45;;;;;;;3.05;1.92;;;17.10;58.70;;;;;;5012374;28;20296;-59
2023/05/13 03:04:16;;;;;;;2.70;1.67;;;17.10;58.70;;;;;;5012367;28;20284;-57
2023/05/13 03:06:46;;;;;;;3.30;1.90;;;17.20;58.70;;;;;;5012276;28;20192;-58
2023/05/13 03:09:19;;;;;;;2.80;2.20;;;17.20;58.70;;;;;;5011275;28;20689;-56
2023/05/13 03:11:50;;;;;;;2.17;1.75;;;17.20;58.60;;;;;;5011296;28;20201;-51
2023/05/13 03:14:21;;;;;;;2.53;1.45;;;17.20;58.60;;;;;;5011139;28;20200;-51
2023/05/13 03:16:52;;;;;;;2.00;1.80;;;17.30;58.60;;;;;;5011708;28;20326;-53
2023/05/13 03:19:23;;;;;;;4.65;1.95;;;17.30;58.60;;;;;;5011541;28;20638;-53
2023/05/13 03:25:07;;;;;;;2.25;1.63;;;17.30;58.50;;;;;;5011555;28;20283;-56
2023/05/13 03:27:41;;;;;;;2.20;1.80;;;17.40;58.50;;;;;;5011553;28;20560;-56
2023/05/13 03:30:12;;;;;;;2.55;1.80;;;17.40;58.40;;;;;;5011405;28;20224;-52
2023/05/13 03:32:43;;;;;;;2.80;1.63;;;17.40;58.50;;;;;;5011015;28;20211;-55
2023/05/13 03:35:13;;;;;;;3.55;1.55;;;17.40;58.40;;;;;;5011525;28;20231;-52
2023/05/13 03:37:44;;;;;;;3.45;1.77;;;17.40;58.40;;;;;;5012052;28;20653;-56
2023/05/13 03:40:17;;;;;;;2.97;1.60;;;17.40;58.40;;;;;;5011883;28;20221;-55
2023/05/13 03:42:47;;;;;;;3.03;1.40;;;17.50;58.40;;;;;;5011775;28;20263;-54
2023/05/13 03:45:18;;;;;;;2.50;1.60;;;17.50;58.40;;;;;;5010710;28;20189;-52
2023/05/13 03:47:48;;;;;;;1.95;1.40;;;17.50;58.30;;;;;;5011039;28;20271;-53
2023/05/13 03:50:19;;;;;;;1.95;1.60;;;17.50;58.20;;;;;;5011071;28;20225;-52
2023/05/13 03:52:50;;;;;;;2.80;1.33;;;17.60;58.20;;;;;;5011615;28;20201;-54
2023/05/13 03:55:22;;;;;;;2.95;1.63;;;17.60;58.70;;;;;;5011674;28;20225;-54
2023/05/13 03:57:53;;;;;;;1.95;1.33;;;17.60;58.20;;;;;;5011565;28;20207;-53
2023/05/13 04:00:24;;;;;;;4.13;1.67;;;17.60;58.10;;;;;;5011485;28;20693;-52
2023/05/13 04:02:54;;;;;;;2.45;1.50;;;17.60;58.00;;;;;;5011078;28;20259;-51
2023/05/13 04:05:25;;;;;;;2.72;1.40;;;17.60;58.00;;;;;;5011400;28;20207;-50
2023/05/13 04:07:56;;;;;;;3.58;1.70;;;17.60;58.00;;;;;;5011418;28;20205;-53
2023/05/13 04:10:28;;;;;;;1.98;1.40;;;17.70;58.00;;;;;;5011403;28;20795;-50
2023/05/13 04:12:59;;;;;;;2.58;1.48;;;17.70;57.90;;;;;;5011239;28;20200;-51
2023/05/13 04:15:30;;;;;;;2.22;1.48;;;17.70;58.10;;;;;;5011365;28;20711;-54
2023/05/13 04:18:01;;;;;;;2.30;1.23;;;17.70;58.10;;;;;;5011445;28;20197;-50
2023/05/13 04:20:31;;;;;;;3.45;1.55;;;17.80;58.00;;;;;;5011201;28;20224;-50
2023/05/13 04:23:02;;;;;;;3.75;1.98;;;17.80;58.00;;;;;;5010735;28;20204;-53
2023/05/13 04:25:36;;;;;;;2.25;1.65;;;17.80;58.60;;;;;;5010889;28;20201;-56
2023/05/13 04:28:07;;;;;;;3.70;1.85;;;17.80;58.70;;;;;;5011104;28;20196;-54
2023/05/13 04:30:38;;;;;;;3.80;1.60;;;17.80;58.50;;;;;;5011006;28;20623;-54
2023/05/13 04:33:08;;;;;;;2.72;1.60;;;17.80;58.30;;;;;;5010899;28;20680;-54
2023/05/13 04:35:39;;;;;;;5.72;1.83;;;17.90;58.30;;;;;;5010955;28;20228;-54
2023/05/13 04:38:10;;;;;;;3.63;1.80;;;17.90;58.20;;;;;;5011101;28;20201;-53
2023/05/13 04:40:42;;;;;;;7.68;3.10;;;17.90;58.20;;;;;;5011353;28;20252;-51
2023/05/13 04:43:13;;;;;;;9.18;4.60;;;17.90;58.80;;;;;;5010892;28;20193;-49
2023/05/13 04:45:44;;;;;;;6.97;3.63;;;17.90;58.30;;;;;;5010576;28;20604;-52
2023/05/13 04:48:14;;;;;;;5.60;3.80;;;17.90;58.00;;;;;;5011187;28;20200;-52
2023/05/13 04:50:48;;;;;;;8.20;4.10;;;17.90;58.00;;;;;;5014715;28;20208;-50
2023/05/13 04:53:19;;;;;;;7.68;3.80;;;17.90;58.00;;;;;;5014629;28;20203;-54
2023/05/13 04:55:56;;;;;;;8.20;4.28;;;17.90;57.90;;;;;;5014977;28;20704;-53
2023/05/13 04:58:26;;;;;;;6.15;2.90;;;17.90;58.00;;;;;;5014559;28;20207;-50
2023/05/13 05:00:57;;;;;;;5.13;2.63;;;17.90;58.00;;;;;;5014685;28;20208;-53
2023/05/13 05:03:28;;;;;;;8.98;3.63;;;17.80;57.90;;;;;;5014933;28;20351;-53
2023/05/13 05:05:58;;;;;;;6.90;1.92;;;17.80;58.60;;;;;;5014328;28;20200;-53
2023/05/13 05:08:29;;;;;;;5.10;1.50;;;17.80;58.30;;;;;;5013920;28;20189;-50
2023/05/13 05:11:02;;;;;;;6.55;2.55;;;17.90;58.10;;;;;;5014609;28;20661;-49
2023/05/13 05:13:33;;;;;;;1.95;1.30;;;17.80;58.10;;;;;;5014581;28;20205;-50
2023/05/13 05:16:03;;;;;;;4.90;1.95;;;17.90;58.10;;;;;;5014175;28;20247;-52
2023/05/13 05:18:34;;;;;;;4.15;1.77;;;17.80;57.90;;;;;;5014373;28;20866;-52
2023/05/13 05:21:05;;;;;;;6.80;1.98;;;17.80;57.80;;;;;;5014169;28;20204;-51
2023/05/13 05:23:36;;;;;;;4.72;2.13;;;17.80;57.80;;;;;;5013733;28;20742;-50
2023/05/13 05:26:08;;;;;;;6.07;2.10;;;17.80;57.80;;;;;;5014209;28;20193;-54
2023/05/13 05:28:39;;;;;;;4.80;2.20;;;17.80;57.80;;;;;;5013818;28;20224;-52
2023/05/13 05:31:10;;;;;;;7.65;3.20;;;17.70;57.80;;;;;;5013755;28;20220;-52
2023/05/13 05:33:40;;;;;;;8.27;3.10;;;17.70;57.90;;;;;;5013827;28;20672;-52
2023/05/13 05:36:11;;;;;;;8.32;4.15;;;17.60;58.00;;;;;;5013770;28;20228;-51
2023/05/13 05:38:42;;;;;;;16.90;12.15;;;17.60;58.00;;;;;;5013081;28;20221;-52
2023/05/13 05:41:15;;;;;;;11.73;9.40;;;17.60;58.10;;;;;;5013142;28;20739;-54
2023/05/13 05:43:45;;;;;;;11.73;7.20;;;17.50;58.10;;;;;;5014114;28;20204;-53
2023/05/13 05:46:16;;;;;;;7.78;4.80;;;17.50;58.70;;;;;;5013261;28;20953;-57
2023/05/13 05:48:47;;;;;;;6.90;4.53;;;17.50;58.10;;;;;;5013412;28;20233;-52
2023/05/13 05:51:17;;;;;;;6.90;4.13;;;17.40;58.10;;;;;;5013635;28;20654;-55
2023/05/13 05:53:48;;;;;;;9.65;7.80;;;17.30;58.00;;;;;;5013607;28;20197;-49
2023/05/13 05:56:20;;;;;;;10.30;6.65;;;17.30;58.10;;;;;;5013585;28;20224;-51
2023/05/13 05:58:51;;;;;;;10.02;7.63;;;17.30;58.10;;;;;;5013552;28;20224;-54
2023/05/13 06:01:22;;;;;;;14.77;10.02;;;17.20;58.00;;;;;;5012336;28;20385;-50
2023/05/13 06:03:53;;;;;;;12.05;9.82;;;17.20;57.90;;;;;;5013461;28;20204;-55
2023/05/13 06:06:24;;;;;;;12.10;9.07;;;17.10;57.70;;;;;;5013363;28;20193;-54
2023/05/13 06:08:54;;;;;;;9.43;7.78;;;17.10;57.60;;;;;;5013227;28;20583;-52
2023/05/13 06:11:27;;;;;;;11.68;7.63;;;17.00;57.60;;;;;;5012612;28;20196;-52
2023/05/13 06:13:58;;;;;;;11.23;7.28;;;17.00;57.80;;;;;;5013031;28;20565;-55
2023/05/13 06:16:28;;;;;;;10.10;7.18;;;16.90;57.80;;;;;;5013324;28;20323;-50
2023/05/13 06:18:59;;;;;;;9.90;7.07;;;16.90;58.00;;;;;;5011444;28;20220;-50
2023/05/13 06:21:30;;;;;;;10.13;6.18;;;16.80;58.10;;;;;;5013397;28;20258;-53
2023/05/13 06:24:01;;;;;;;9.30;6.95;;;16.80;58.20;;;;;;5013603;28;20204;-52
2023/05/13 06:26:34;;;;;;;6.78;5.60;;;16.70;58.10;;;;;;5012796;28;20197;-53
2023/05/13 06:29:05;;;;;;;6.88;4.88;;;16.70;58.20;;;;;;5012549;28;20225;-54
2023/05/13 06:31:36;;;;;;;6.13;4.68;;;16.60;58.20;;;;;;5012855;28;20200;-52
2023/05/13 06:34:06;;;;;;;8.70;4.75;;;16.60;58.40;;;;;;5012679;28;20667;-53
2023/05/13 06:36:37;;;;;;;7.45;5.15;;;16.50;58.50;;;;;;5013044;28;20228;-53
2023/05/13 06:39:08;;;;;;;5.97;4.40;;;16.50;58.50;;;;;;5012997;28;20734;-54
2023/05/13 06:41:40;;;;;;;4.47;3.50;;;16.40;58.40;;;;;;5012241;28;20196;-52
2023/05/13 06:44:11;;;;;;;5.30;2.78;;;16.40;58.40;;;;;;5012968;28;20208;-54
2023/05/13 06:46:41;;;;;;;5.78;2.38;;;16.40;58.50;;;;;;5012359;28;20197;-53
2023/05/13 06:49:12;;;;;;;7.15;4.82;;;16.30;58.50;;;;;;5011963;28;20251;-53
2023/05/13 06:51:43;;;;;;;9.05;5.60;;;16.30;58.50;;;;;;5012497;28;20212;-56
2023/05/13 06:54:13;;;;;;;8.18;4.35;;;16.20;58.50;;;;;;5012580;28;20201;-50
2023/05/13 06:56:48;;;;;;;8.40;4.15;;;16.20;58.60;;;;;;5012152;28;20221;-54
2023/05/13 06:59:19;;;;;;;9.65;5.25;;;16.20;58.60;;;;;;5012722;28;20303;-54
2023/05/13 07:01:49;;;;;;;6.35;3.88;;;16.10;58.70;;;;;;5012680;28;20597;-53
2023/05/13 07:04:20;;;;;;;3.95;2.45;;;16.10;58.70;;;;;;5012232;28;20684;-52
2023/05/13 07:06:51;;;;;;;5.53;2.97;;;16.00;58.60;;;;;;5012303;28;20707;-54
2023/05/13 07:09:21;;;;;;;7.80;3.97;;;16.00;58.60;;;;;;5012179;28;20254;-55
2023/05/13 07:11:54;;;;;;;8.90;5.63;;;15.90;58.60;;;;;;5012230;28;20201;-52
2023/05/13 07:14:25;;;;;;;4.40;3.00;;;15.90;58.50;;;;;;5011623;28;20201;-54
2023/05/13 07:16:57;;;;;;;7.43;4.43;;;15.90;58.40;;;;;;5011293;28;20260;-51
2023/05/13 07:19:28;;;;;;;6.45;3.13;;;15.80;58.40;;;;;;5011491;28;20213;-52
2023/05/13 07:21:58;;;;;;;4.05;2.60;;;15.80;58.40;;;;;;5011510;28;20200;-54
2023/05/13 07:24:29;;;;;;;4.88;2.80;;;15.70;58.20;;;;;;5010370;28;20193;-50
2023/05/13 07:27:02;;;;;;;4.25;2.35;;;15.70;58.20;;;;;;5011490;28;20193;-52
2023/05/13 07:29:34;;;;;;;2.88;2.10;;;15.60;58.10;;;;;;5011936;28;20293;-53
2023/05/13 07:32:07;;;;;;;2.08;1.58;;;15.60;58.00;;;;;;5012058;28;20208;-53
2023/05/13 07:34:37;;;;;;;3.47;1.90;;;15.50;57.90;;;;;;5011696;28;20193;-48
2023/05/13 07:37:08;;;;;;;2.15;1.80;;;15.50;57.90;;;;;;5011127;28;20219;-49
2023/05/13 07:39:39;;;;;;;2.50;2.15;;;15.40;57.80;;;;;;5011234;28;20228;-49
2023/05/13 07:42:11;;;;;;;3.90;2.08;;;15.40;57.70;;;;;;5012103;28;20204;-50
2023/05/13 07:44:42;;;;;;;3.50;2.00;;;15.30;57.60;;;;;;5011797;28;20668;-52
2023/05/13 07:47:13;;;;;;;3.10;2.17;;;15.30;57.40;;;;;;5011678;28;20228;-50
2023/05/13 07:49:44;;;;;;;6.65;3.72;;;15.20;57.30;;;;;;5011418;28;20225;-50
2023/05/13 07:52:14;;;;;;;5.78;3.63;;;15.20;57.20;;;;;;5011189;28;20704;-48
2023/05/13 07:54:45;;;;;;;4.28;2.85;;;15.10;57.20;;;;;;5010307;28;20665;-48
2023/05/13 07:57:17;;;;;;;3.03;2.17;;;15.10;57.20;;;;;;5010925;28;20225;-50
2023/05/13 07:59:48;;;;;;;2.30;1.75;;;15.00;57.10;;;;;;5011543;28;20216;-51
2023/05/13 08:02:19;;;;;;;2.38;1.50;;;14.90;57.10;;;;;;5011633;28;20208;-51
2023/05/13 08:04:49;;;;;;;3.22;1.67;;;14.90;57.10;;;;;;5011177;28;20201;-53
2023/05/13 08:07:20;;;;;;;6.15;5.10;;;14.90;57.20;;;;;;5011460;28;20200;-51
2023/05/13 08:09:51;;;;;;;5.65;4.32;;;14.80;57.10;;;;;;5010717;28;20224;-52
2023/05/13 08:12:23;;;;;;;4.53;2.70;;;14.80;57.10;;;;;;5011471;28;20665;-50
2023/05/13 08:14:54;;;;;;;3.72;2.47;;;14.70;57.00;;;;;;5011606;28;20602;-48
2023/05/13 08:17:25;;;;;;;2.92;2.00;;;14.70;57.00;;;;;;5011363;28;20230;-53
2023/05/13 08:19:55;;;;;;;2.40;2.10;;;14.60;56.90;;;;;;5011074;28;20561;-54
2023/05/13 08:22:26;;;;;;;1.98;1.55;;;14.60;56.90;;;;;;5010750;28;20208;-51
2023/05/13 08:24:59;;;;;;;2.53;1.60;;;14.50;56.80;;;;;;5013169;28;20208;-55
2023/05/13 08:27:32;;;;;;;1.83;1.63;;;14.50;56.80;;;;;;5014617;28;20204;-51
2023/05/13 08:30:02;;;;;;;3.33;2.10;;;14.40;56.80;;;;;;5012941;28;20719;-55
2023/05/13 08:32:33;;;;;;;3.65;2.30;;;14.40;56.80;;;;;;5014959;28;20672;-51
2023/05/13 08:35:04;;;;;;;2.40;2.08;;;14.30;56.80;;;;;;5015002;28;20219;-56
2023/05/13 08:37:34;;;;;;;2.88;2.13;;;14.30;56.90;;;;;;5014735;28;20598;-51
2023/05/13 08:40:05;;;;;;;2.70;1.73;;;14.30;57.20;;;;;;5014297;28;20221;-51
2023/05/13 08:42:40;;;;;;;3.65;2.30;;;14.30;57.30;;;;;;5015121;28;20193;-53
2023/05/13 08:45:12;;;;;;;4.35;2.30;;;14.30;57.40;;;;;;5014919;28;20223;-54
2023/05/13 08:47:51;;;;;;;2.42;1.88;;;14.30;58.10;;;;;;5014509;28;20200;-54
2023/05/13 08:50:23;;;;;;;2.67;1.80;;;14.40;57.70;;;;;;5014015;28;20720;-54
2023/05/13 08:52:55;;;;;;;2.75;1.98;;;14.40;57.90;;;;;;5014533;28;20201;-51
2023/05/13 08:55:26;;;;;;;2.53;1.80;;;14.40;57.70;;;;;;5014340;28;20204;-53
2023/05/13 08:57:58;;;;;;;2.53;1.80;;;14.50;57.70;;;;;;5014830;28;20235;-54
2023/05/13 09:00:29;;;;;;;3.40;2.08;;;14.50;57.70;;;;;;5014764;28;20271;-53
2023/05/13 09:03:00;;;;;;;2.60;2.03;;;14.50;57.70;;;;;;5014552;28;20197;-50
2023/05/13 09:05:30;;;;;;;3.15;2.10;;;14.60;57.70;;;;;;5014351;28;20687;-51
2023/05/13 09:08:04;;;;;;;3.17;2.30;;;14.60;57.70;;;;;;5014023;28;20193;-56
2023/05/13 09:10:34;;;;;;;4.40;2.05;;;14.60;57.60;;;;;;5014354;28;20224;-55
2023/05/13 09:13:07;;;;;;;2.92;1.83;;;14.70;57.60;;;;;;5014182;28;20209;-51
2023/05/13 09:15:38;;;;;;;2.15;1.83;;;14.70;57.60;;;;;;5013818;28;20231;-55
2023/05/13 09:18:09;;;;;;;2.25;2.05;;;14.70;57.60;;;;;;5013830;28;20256;-56
2023/05/13 09:20:40;;;;;;;2.70;1.70;;;14.70;57.60;;;;;;5014059;28;20732;-54
2023/05/13 09:23:11;;;;;;;2.65;2.00;;;14.70;57.50;;;;;;5013695;28;20201;-55
2023/05/13 09:25:42;;;;;;;2.22;2.00;;;14.80;57.50;;;;;;5013759;28;20672;-55
2023/05/13 09:28:17;;;;;;;2.92;2.15;;;14.80;57.50;;;;;;5013976;28;20200;-54
2023/05/13 09:30:57;;;;;;;3.00;2.00;;;14.80;57.50;;;;;;5014165;28;20240;-53
2023/05/13 09:33:32;;;;;;;1.65;1.55;;;14.80;57.40;;;;;;5013516;28;20251;-55
2023/05/13 09:36:05;;;;;;;2.00;1.90;;;14.90;57.50;;;;;;5013728;28;20212;-53
2023/05/13 09:38:37;;;;;;;2.17;1.92;;;14.90;57.40;;;;;;5013519;28;20608;-56
2023/05/13 09:41:08;;;;;;;3.20;2.38;;;14.90;57.40;;;;;;5011438;28;20235;-59
2023/05/13 09:43:41;;;;;;;3.55;2.00;;;14.90;57.40;;;;;;5012540;28;20197;-54
2023/05/13 09:46:12;;;;;;;2.50;2.00;;;14.90;57.40;;;;;;5012630;28;20615;-51
2023/05/13 09:48:45;;;;;;;1.75;1.65;;;14.90;57.40;;;;;;5013107;28;20240;-53
2023/05/13 09:51:18;;;;;;;2.40;1.80;;;14.90;57.40;;;;;;5013003;28;20232;-56
2023/05/13 09:53:50;;;;;;;2.13;1.92;;;14.90;57.30;;;;;;5012549;28;20598;-58
2023/05/13 09:56:24;;;;;;;2.75;2.10;;;15.00;57.40;;;;;;5013135;28;20200;-58
2023/05/13 09:58:59;;;;;;;2.92;2.30;;;15.00;57.40;;;;;;5012729;28;20312;-55
2023/05/13 10:01:30;;;;;;;2.55;2.20;;;15.00;57.40;;;;;;5013054;28;20211;-56
2023/05/13 10:04:01;;;;;;;3.03;2.10;;;15.00;57.40;;;;;;5011678;28;20782;-55
2023/05/13 10:06:33;;;;;;;3.40;2.33;;;15.00;57.40;;;;;;5011329;28;20193;-50
2023/05/13 10:09:06;;;;;;;2.88;2.53;;;15.00;57.40;;;;;;5009901;28;20233;-55
2023/05/13 10:11:38;;;;;;;2.58;2.28;;;15.00;57.30;;;;;;5011855;28;20205;-54
2023/05/13 10:14:10;;;;;;;3.50;2.38;;;15.00;57.30;;;;;;5011539;28;20197;-52
2023/05/13 10:16:41;;;;;;;3.00;2.20;;;15.10;57.30;;;;;;5012690;28;20192;-57
2023/05/13 10:19:13;;;;;;;4.10;3.28;;;15.10;57.30;;;;;;5012623;28;20314;-56
2023/05/13 10:21:45;;;;;;;3.85;2.92;;;15.00;57.30;;;;;;5011368;28;20576;-55
2023/05/13 10:24:16;;;;;;;4.78;3.25;;;15.10;57.30;;;;;;5012250;28;20197;-58
2023/05/13 10:26:47;;;;;;;3.85;2.83;;;15.10;57.30;;;;;;5011708;28;20199;-53
2023/05/13 10:29:21;;;;;;;4.40;3.17;;;15.00;57.30;;;;;;5011127;28;20217;-53
2023/05/13 10:31:53;;;;;;;4.22;2.90;;;15.10;57.30;;;;;;5011347;28;20195;-56
2023/05/13 10:34:25;;;;;;;4.05;3.35;;;15.10;57.30;;;;;;5012091;28;20192;-57
2023/05/13 10:37:10;;;;;;;4.15;3.08;;;15.10;57.30;;;;;;5011637;28;20196;-56
2023/05/13 10:40:03;;;;;;;4.45;3.15;;;15.10;57.30;;;;;;5012628;28;20212;-56
2023/05/13 10:42:44;;;;;;;4.97;3.13;;;15.10;57.30;;;;;;5012284;28;20327;-51
2023/05/13 10:45:19;;;;;;;3.65;2.72;;;15.10;57.30;;;;;;5012305;28;20649;-52
2023/05/13 10:47:52;;;;;;;5.20;3.50;;;15.10;57.20;;;;;;5011415;28;20196;-53
2023/05/13 10:50:29;;;;;;;4.18;3.15;;;15.10;57.20;;;;;;5011463;28;20229;-52
2023/05/13 10:53:02;;;;;;;4.40;3.10;;;15.10;57.20;;;;;;5011623;28;20197;-53
2023/05/13 10:55:41;;;;;;;4.03;3.33;;;15.10;57.20;;;;;;5011202;28;20201;-54
2023/05/13 10:58:13;;;;;;;3.92;3.00;;;15.10;57.20;;;;;;5011483;28;20231;-53
2023/05/13 11:00:46;;;;;;;3.78;2.80;;;15.10;57.20;;;;;;5011150;28;20200;-51
2023/05/13 11:03:29;;;;;;;5.10;2.97;;;15.10;57.20;;;;;;5011777;28;20220;-51
2023/05/13 11:06:15;;;;;;;3.78;3.00;;;15.10;57.30;;;;;;5011557;28;20236;-50
2023/05/13 11:08:46;;;;;;;3.45;2.80;;;15.10;57.30;;;;;;5011008;28;20216;-52
2023/05/13 11:11:34;;;;;;;3.88;3.20;;;15.10;57.30;;;;;;5010505;28;20196;-50
2023/05/13 11:14:17;;;;;;;3.88;2.75;;;15.10;57.30;;;;;;5011928;28;20208;-51
2023/05/13 11:17:08;;;;;;;3.58;3.28;;;15.10;57.30;;;;;;5010596;28;20232;-56
2023/05/13 11:19:39;;;;;;;3.65;2.95;;;15.10;57.20;;;;;;5011360;28;20224;-51
2023/05/13 11:22:13;;;;;;;3.95;3.20;;;15.10;57.20;;;;;;5011049;28;20196;-52
2023/05/13 11:24:47;;;;;;;3.30;2.90;;;15.10;57.10;;;;;;5011560;28;20188;-51
2023/05/13 11:27:19;;;;;;;4.63;3.47;;;15.10;57.10;;;;;;5011893;28;20288;-53
2023/05/13 11:29:54;;;;;;;4.20;3.60;;;15.10;57.20;;;;;;5011466;28;20221;-52
2023/05/13 11:33:01;;;;;;;3.38;3.00;;;15.10;57.20;;;;;;5011097;28;20188;-49
2023/05/13 11:35:32;;;;;;;3.67;2.92;;;15.10;57.20;;;;;;5010623;28;20205;-55
2023/05/13 11:38:04;;;;;;;3.95;3.05;;;15.10;57.10;;;;;;5011518;28;20271;-50
2023/05/13 11:40:37;;;;;;;4.63;3.40;;;15.10;57.10;;;;;;5010499;28;20221;-52
2023/05/13 11:43:07;;;;;;;3.88;2.80;;;15.10;57.10;;;;;;5011785;28;20262;-53
2023/05/13 11:45:41;;;;;;;3.47;2.97;;;15.10;57.20;;;;;;5010665;28;20193;-53
2023/05/13 11:48:25;;;;;;;3.45;3.03;;;15.10;57.20;;;;;;5011675;28;20235;-52
2023/05/13 11:50:58;;;;;;;3.10;2.80;;;15.10;57.20;;;;;;5010748;28;20205;-52
2023/05/13 11:53:28;;;;;;;3.70;3.30;;;15.10;57.20;;;;;;5010801;28;20192;-51
2023/05/13 11:56:09;;;;;;;4.85;3.00;;;15.10;57.10;;;;;;5010747;28;20292;-52
2023/05/13 11:58:40;;;;;;;4.97;3.15;;;15.10;57.10;;;;;;5010710;28;20240;-55
2023/05/13 12:01:18;;;;;;;4.18;3.05;;;15.10;57.10;;;;;;5010685;28;20211;-49
2023/05/13 12:03:50;;;;;;;4.22;3.60;;;15.10;57.20;;;;;;5010152;28;20188;-51
2023/05/13 12:06:21;;;;;;;3.83;3.25;;;15.10;57.10;;;;;;5011256;28;20735;-51
2023/05/13 12:08:52;;;;;;;4.20;3.10;;;15.10;57.10;;;;;;5010744;28;20292;-53
2023/05/13 12:11:23;;;;;;;3.15;2.80;;;15.10;57.10;;;;;;5010506;28;20197;-55
2023/05/13 12:13:53;;;;;;;3.47;2.83;;;15.00;57.10;;;;;;5010532;28;20680;-53
2023/05/13 12:16:24;;;;;;;3.42;2.78;;;15.00;57.10;;;;;;5010974;28;20196;-52
2023/05/13 12:19:02;;;;;;;3.53;2.65;;;15.00;57.10;;;;;;5010141;28;20685;-51
2023/05/13 12:21:34;;;;;;;3.40;3.00;;;15.00;57.10;;;;;;5011317;28;20614;-55
2023/05/13 12:24:17;;;;;;;3.42;2.63;;;15.00;57.10;;;;;;5010974;28;20332;-52
2023/05/13 12:26:48;;;;;;;3.20;2.80;;;15.00;57.10;;;;;;5010891;28;20201;-53
2023/05/13 12:29:19;;;;;;;3.55;2.90;;;15.00;57.10;;;;;;5010960;28;20204;-52
2023/05/13 12:32:07;;;;;;;2.88;2.50;;;15.00;57.10;;;;;;5009566;28;20197;-54
2023/05/13 12:34:39;;;;;;;3.95;2.83;;;15.00;57.10;;;;;;5010288;28;20204;-57
2023/05/13 12:37:14;;;;;;;3.40;2.83;;;15.00;57.10;;;;;;4991369;28;20740;-54
2023/05/13 12:39:45;;;;;;;3.80;2.80;;;15.00;57.10;;;;;;5000284;28;20294;-53
2023/05/13 12:42:19;;;;;;;3.28;2.80;;;15.00;57.10;;;;;;5010583;28;20283;-54
2023/05/13 12:44:50;;;;;;;3.58;2.80;;;15.00;57.10;;;;;;5009420;28;20200;-57
2023/05/13 12:47:22;;;;;;;3.45;2.38;;;15.00;57.00;;;;;;5010849;28;20661;-56
2023/05/13 12:49:58;;;;;;;3.58;2.88;;;15.00;57.10;;;;;;5010822;28;20268;-55
2023/05/13 12:52:29;;;;;;;2.97;2.67;;;15.00;57.10;;;;;;5011072;28;20239;-56
2023/05/13 12:55:00;;;;;;;2.97;2.70;;;15.00;57.10;;;;;;5010711;28;20197;-55
2023/05/13 12:57:30;;;;;;;2.83;2.50;;;15.00;57.10;;;;;;5010550;28;20201;-54
2023/05/13 13:00:01;;;;;;;4.47;2.97;;;14.90;57.00;;;;;;5010928;28;20233;-53
2023/05/13 13:02:31;;;;;;;3.17;2.60;;;14.90;57.00;;;;;;5010905;28;20210;-54
2023/05/13 13:05:07;;;;;;;2.97;2.45;;;14.90;57.00;;;;;;5011000;28;20208;-52
2023/05/13 13:07:38;;;;;;;3.28;2.53;;;14.90;57.00;;;;;;5010706;28;20197;-54
2023/05/13 13:10:10;;;;;;;2.65;2.42;;;14.90;57.00;;;;;;5012057;28;20208;-53
2023/05/13 13:12:41;;;;;;;2.50;2.22;;;14.90;57.00;;;;;;5014632;28;20281;-51
2023/05/13 13:15:12;;;;;;;3.42;2.75;;;14.90;57.00;;;;;;5013813;28;20196;-56
2023/05/13 13:17:43;;;;;;;2.53;2.20;;;14.90;57.00;;;;;;5014453;28;20193;-58
2023/05/13 13:20:15;;;;;;;3.03;2.58;;;14.90;57.00;;;;;;5013060;28;20220;-54
2023/05/13 13:22:46;;;;;;;2.85;2.50;;;14.90;57.00;;;;;;5013398;28;20197;-57